< < Back
Terminal Aerodrome Forecast


Current Version              Previous Versions:   1  2  3  4  5  6  7  8  9  

Terminal Aerodrome Forecast

148
FTUS42 KGSP 300600 AAA
TAFHKY
TAF AMD
KHKY 300611Z 3006/3106 00000KT P6SM BKN009
      TEMPO 3009/3013 3SM BR BKN007
     FM301400 00000KT P6SM SCT250
     FM301600 15005KT P6SM SCT045
     FM310200 17003KT P6SM BKN050=

Latest METAR

923
SAUS70 KWBC 300800 RRC
MTRHKY
METAR KHKY 300753Z AUTO 00000KT 7SM CLR 23/21 A3019 RMK AO2 SLP199
T02280211


USA.gov is the U.S. government's official web portal to all federal, state and local government web resources and services.